CHH779 ZSOF-ZSAM
Flight info
| Callsign | CHH779 |
|---|---|
| Flight time | 1h 35m |
| Altitude | 31100 |
| Route | MADUK R343 UPLEL W95 SAPIN A470 ENVEN |
| Aircraft | A21N/M-SDE2E3GHIJ1J3J4J5LM1ORWXYZ/LB1D1 |
Departure
| Time | 2026-05-08 12:32 |
|---|---|
| Airport | Hefei Xinqiao International Airport (ZSOF) |
Arrival
| Time | 2026-05-08 14:08 |
|---|---|
| Airport | Xiamen Gaoqi International Airport (ZSAM) |
| Time | Latitude | Longitude | Altitude | Speed | Heading |
|---|---|---|---|---|---|
| 2026-05-08 12:15 | 31.99050 | 116.96406 | 218 ft | 0 kts | 169° |
| 2026-05-08 12:23 | 31.99052 | 116.96405 | 218 ft | 1 kts | 169° |
| 2026-05-08 12:23 | 31.99066 | 116.96402 | 218 ft | 2 kts | 168° |
| 2026-05-08 12:23 | 31.99081 | 116.96398 | 218 ft | 2 kts | 169° |
| 2026-05-08 12:23 | 31.99095 | 116.96395 | 218 ft | 1 kts | 169° |
| 2026-05-08 12:24 | 31.99105 | 116.96393 | 218 ft | 2 kts | 156° |
| 2026-05-08 12:24 | 31.99117 | 116.96382 | 218 ft | 2 kts | 128° |
| 2026-05-08 12:24 | 31.99124 | 116.96366 | 218 ft | 2 kts | 102° |
| 2026-05-08 12:24 | 31.99125 | 116.96353 | 218 ft | 0 kts | 82° |
| 2026-05-08 12:25 | 31.99123 | 116.96345 | 218 ft | 0 kts | 79° |
| 2026-05-08 12:26 | 31.99125 | 116.96353 | 218 ft | 5 kts | 79° |
| 2026-05-08 12:27 | 31.99136 | 116.96436 | 218 ft | 17 kts | 83° |
| 2026-05-08 12:27 | 31.99147 | 116.96584 | 218 ft | 18 kts | 89° |
| 2026-05-08 12:27 | 31.99142 | 116.96731 | 218 ft | 10 kts | 96° |
| 2026-05-08 12:27 | 31.99136 | 116.96788 | 218 ft | 8 kts | 97° |
| 2026-05-08 12:28 | 31.99133 | 116.96908 | 218 ft | 16 kts | 82° |
| 2026-05-08 12:28 | 31.99150 | 116.97031 | 218 ft | 7 kts | 80° |
| 2026-05-08 12:28 | 31.99175 | 116.97083 | 218 ft | 6 kts | 20° |
| 2026-05-08 12:28 | 31.99223 | 116.97073 | 218 ft | 8 kts | 331° |
| 2026-05-08 12:29 | 31.99307 | 116.97014 | 218 ft | 23 kts | 330° |
| 2026-05-08 12:29 | 31.99495 | 116.96886 | 218 ft | 34 kts | 330° |
| 2026-05-08 12:29 | 31.99696 | 116.96751 | 218 ft | 32 kts | 330° |
| 2026-05-08 12:29 | 31.99887 | 116.96622 | 218 ft | 31 kts | 330° |
| 2026-05-08 12:30 | 31.99999 | 116.96547 | 218 ft | 7 kts | 330° |
| 2026-05-08 12:30 | 32.00048 | 116.96542 | 218 ft | 8 kts | 32° |
| 2026-05-08 12:30 | 32.00084 | 116.96603 | 218 ft | 10 kts | 60° |
| 2026-05-08 12:30 | 32.00108 | 116.96652 | 218 ft | 0 kts | 59° |
| 2026-05-08 12:31 | 32.00126 | 116.96691 | 218 ft | 11 kts | 60° |
| 2026-05-08 12:31 | 32.00148 | 116.96754 | 218 ft | 7 kts | 97° |
| 2026-05-08 12:31 | 32.00109 | 116.96803 | 218 ft | 9 kts | 152° |
| 2026-05-08 12:32 | 31.99996 | 116.96878 | 218 ft | 45 kts | 150° |
| 2026-05-08 12:32 | 31.99474 | 116.97231 | 218 ft | 123 kts | 150° |
| 2026-05-08 12:32 | 31.98560 | 116.97852 | 296 ft | 175 kts | 152° |
| 2026-05-08 12:32 | 31.97511 | 116.98555 | 1075 ft | 174 kts | 152° |
| 2026-05-08 12:33 | 31.96485 | 116.99252 | 1933 ft | 173 kts | 151° |
| 2026-05-08 12:33 | 31.95416 | 116.99976 | 2519 ft | 185 kts | 151° |
| 2026-05-08 12:33 | 31.94260 | 117.00758 | 3019 ft | 202 kts | 151° |
| 2026-05-08 12:33 | 31.92980 | 117.01624 | 3526 ft | 221 kts | 151° |
| 2026-05-08 12:34 | 31.91579 | 117.02572 | 3930 ft | 246 kts | 150° |
| 2026-05-08 12:34 | 31.90054 | 117.03603 | 4560 ft | 262 kts | 150° |
| 2026-05-08 12:34 | 31.88458 | 117.04684 | 5473 ft | 267 kts | 150° |
| 2026-05-08 12:34 | 31.86863 | 117.05761 | 6401 ft | 270 kts | 150° |
| 2026-05-08 12:35 | 31.85236 | 117.06859 | 7289 ft | 274 kts | 150° |
| 2026-05-08 12:35 | 31.83597 | 117.07964 | 8151 ft | 278 kts | 150° |
| 2026-05-08 12:35 | 31.81911 | 117.09103 | 9007 ft | 282 kts | 150° |
| 2026-05-08 12:35 | 31.80211 | 117.10249 | 9840 ft | 286 kts | 149° |
| 2026-05-08 12:36 | 31.78472 | 117.11420 | 10635 ft | 291 kts | 149° |
| 2026-05-08 12:36 | 31.76679 | 117.12629 | 11119 ft | 307 kts | 149° |
| 2026-05-08 12:36 | 31.74923 | 117.14146 | 11472 ft | 326 kts | 130° |
| 2026-05-08 12:36 | 31.73772 | 117.16509 | 11822 ft | 343 kts | 107° |
| 2026-05-08 12:37 | 31.73421 | 117.19357 | 12171 ft | 360 kts | 91° |
| 2026-05-08 12:37 | 31.73374 | 117.22363 | 12497 ft | 377 kts | 90° |
| 2026-05-08 12:37 | 31.73346 | 117.25503 | 12784 ft | 394 kts | 90° |
| 2026-05-08 12:37 | 31.73312 | 117.28767 | 13153 ft | 406 kts | 90° |
| 2026-05-08 12:38 | 31.73271 | 117.32088 | 13806 ft | 410 kts | 91° |
| 2026-05-08 12:38 | 31.73224 | 117.35426 | 14511 ft | 412 kts | 91° |
| 2026-05-08 12:38 | 31.73173 | 117.38806 | 15174 ft | 415 kts | 91° |
| 2026-05-08 12:38 | 31.73119 | 117.42220 | 15816 ft | 418 kts | 91° |
| 2026-05-08 12:39 | 31.73062 | 117.45606 | 16418 ft | 421 kts | 91° |
| 2026-05-08 12:39 | 31.73003 | 117.49075 | 17009 ft | 424 kts | 91° |
| 2026-05-08 12:39 | 31.72942 | 117.52537 | 17577 ft | 428 kts | 92° |
| 2026-05-08 12:39 | 31.72880 | 117.56035 | 18123 ft | 431 kts | 92° |
| 2026-05-08 12:40 | 31.72816 | 117.59572 | 18661 ft | 434 kts | 92° |
| 2026-05-08 12:40 | 31.72751 | 117.63088 | 19172 ft | 437 kts | 92° |
| 2026-05-08 12:40 | 31.72683 | 117.66698 | 19670 ft | 440 kts | 93° |
| 2026-05-08 12:40 | 31.72615 | 117.70308 | 20152 ft | 444 kts | 93° |
| 2026-05-08 12:41 | 31.72544 | 117.73953 | 20615 ft | 447 kts | 93° |
| 2026-05-08 12:41 | 31.72473 | 117.77559 | 21050 ft | 451 kts | 93° |
| 2026-05-08 12:41 | 31.72399 | 117.81283 | 21488 ft | 454 kts | 94° |
| 2026-05-08 12:41 | 31.72324 | 117.84987 | 21912 ft | 457 kts | 94° |
| 2026-05-08 12:42 | 31.72247 | 117.88731 | 22314 ft | 461 kts | 94° |
| 2026-05-08 12:42 | 31.72170 | 117.92467 | 22704 ft | 464 kts | 94° |
| 2026-05-08 12:42 | 31.72088 | 117.96295 | 23080 ft | 467 kts | 94° |
| 2026-05-08 12:42 | 31.72007 | 118.00097 | 23446 ft | 470 kts | 94° |
| 2026-05-08 12:43 | 31.71923 | 118.03956 | 23863 ft | 472 kts | 94° |
| 2026-05-08 12:43 | 31.71840 | 118.07765 | 24366 ft | 471 kts | 94° |
| 2026-05-08 12:43 | 31.71691 | 118.11620 | 24851 ft | 470 kts | 97° |
| 2026-05-08 12:43 | 31.71441 | 118.15401 | 25295 ft | 470 kts | 97° |
| 2026-05-08 12:44 | 31.71172 | 118.19236 | 25729 ft | 471 kts | 98° |
| 2026-05-08 12:44 | 31.70902 | 118.23060 | 26152 ft | 471 kts | 98° |
| 2026-05-08 12:44 | 31.70630 | 118.26877 | 26558 ft | 472 kts | 98° |
| 2026-05-08 12:44 | 31.70356 | 118.30750 | 26965 ft | 472 kts | 98° |
| 2026-05-08 12:45 | 31.70087 | 118.34555 | 27360 ft | 473 kts | 98° |
| 2026-05-08 12:45 | 31.69813 | 118.38441 | 27744 ft | 474 kts | 98° |
| 2026-05-08 12:45 | 31.69542 | 118.42250 | 28109 ft | 475 kts | 98° |
| 2026-05-08 12:45 | 31.69263 | 118.46132 | 28474 ft | 476 kts | 98° |
| 2026-05-08 12:46 | 31.68986 | 118.49990 | 28833 ft | 477 kts | 98° |
| 2026-05-08 12:46 | 31.68706 | 118.53867 | 29187 ft | 477 kts | 98° |
| 2026-05-08 12:46 | 31.68426 | 118.57732 | 29538 ft | 478 kts | 98° |
| 2026-05-08 12:46 | 31.68144 | 118.61624 | 29849 ft | 480 kts | 97° |
| 2026-05-08 12:47 | 31.67863 | 118.65501 | 30114 ft | 482 kts | 98° |
| 2026-05-08 12:47 | 31.67643 | 118.68520 | 30317 ft | 484 kts | 98° |
| 2026-05-08 12:47 | 31.67365 | 118.72339 | 30563 ft | 486 kts | 98° |
| 2026-05-08 12:47 | 31.67072 | 118.76333 | 30804 ft | 488 kts | 98° |
| 2026-05-08 12:48 | 31.66784 | 118.80252 | 31033 ft | 490 kts | 98° |
| 2026-05-08 12:48 | 31.66488 | 118.84229 | 31245 ft | 492 kts | 98° |
| 2026-05-08 12:48 | 31.65630 | 118.92192 | 31299 ft | 490 kts | 108° |
| 2026-05-08 12:49 | 31.62892 | 118.99479 | 31306 ft | 490 kts | 128° |
| 2026-05-08 12:49 | 31.58292 | 119.05226 | 31310 ft | 482 kts | 146° |
| 2026-05-08 12:50 | 31.52933 | 119.09892 | 31309 ft | 481 kts | 148° |
| 2026-05-08 12:50 | 31.47572 | 119.14514 | 31309 ft | 481 kts | 147° |
| 2026-05-08 12:51 | 31.39555 | 119.21510 | 31309 ft | 481 kts | 147° |
| 2026-05-08 12:52 | 31.34185 | 119.26194 | 31308 ft | 481 kts | 147° |
| 2026-05-08 12:52 | 31.26164 | 119.33181 | 31309 ft | 481 kts | 147° |
| 2026-05-08 12:53 | 31.20837 | 119.37811 | 31309 ft | 481 kts | 147° |
| 2026-05-08 12:53 | 31.15462 | 119.42490 | 31309 ft | 482 kts | 147° |
| 2026-05-08 12:54 | 31.10105 | 119.47170 | 31309 ft | 481 kts | 147° |
| 2026-05-08 12:54 | 31.04762 | 119.51833 | 31309 ft | 482 kts | 147° |
| 2026-05-08 12:55 | 30.99421 | 119.56484 | 31310 ft | 481 kts | 146° |
| 2026-05-08 12:55 | 30.94066 | 119.61137 | 31313 ft | 482 kts | 146° |
| 2026-05-08 12:56 | 30.88985 | 119.65552 | 31317 ft | 482 kts | 146° |
| 2026-05-08 12:56 | 30.84020 | 119.69871 | 31321 ft | 482 kts | 145° |
| 2026-05-08 12:57 | 30.78842 | 119.74372 | 31325 ft | 482 kts | 145° |
| 2026-05-08 12:57 | 30.73603 | 119.78909 | 31330 ft | 482 kts | 146° |
| 2026-05-08 12:58 | 30.68355 | 119.83430 | 31333 ft | 482 kts | 146° |
| 2026-05-08 12:58 | 30.64866 | 119.86420 | 31334 ft | 482 kts | 146° |
| 2026-05-08 12:59 | 30.59937 | 119.90640 | 31335 ft | 482 kts | 145° |
| 2026-05-08 12:59 | 30.54604 | 119.95384 | 31336 ft | 483 kts | 144° |
| 2026-05-08 13:00 | 30.49010 | 119.99445 | 31333 ft | 478 kts | 160° |
| 2026-05-08 13:00 | 30.42590 | 120.01014 | 31335 ft | 472 kts | 181° |
| 2026-05-08 13:01 | 30.36875 | 120.00117 | 31336 ft | 467 kts | 198° |
| 2026-05-08 13:01 | 30.31051 | 119.96925 | 31338 ft | 465 kts | 211° |
| 2026-05-08 13:02 | 30.25470 | 119.93168 | 31337 ft | 465 kts | 211° |
| 2026-05-08 13:02 | 30.19833 | 119.89385 | 31072 ft | 477 kts | 210° |
| 2026-05-08 13:03 | 30.16970 | 119.87488 | 30823 ft | 478 kts | 210° |
| 2026-05-08 13:03 | 30.14091 | 119.85584 | 30573 ft | 479 kts | 210° |
| 2026-05-08 13:03 | 30.11180 | 119.83661 | 30321 ft | 480 kts | 210° |
| 2026-05-08 13:03 | 30.08295 | 119.81754 | 30159 ft | 481 kts | 210° |
| 2026-05-08 13:04 | 30.02517 | 119.77918 | 30139 ft | 483 kts | 210° |
| 2026-05-08 13:04 | 29.96749 | 119.74031 | 30131 ft | 483 kts | 210° |
| 2026-05-08 13:05 | 29.90913 | 119.70150 | 30126 ft | 483 kts | 207° |
| 2026-05-08 13:05 | 29.84703 | 119.67320 | 30124 ft | 483 kts | 195° |
| 2026-05-08 13:06 | 29.78109 | 119.66084 | 30125 ft | 483 kts | 184° |
| 2026-05-08 13:06 | 29.71425 | 119.65681 | 30126 ft | 483 kts | 183° |
| 2026-05-08 13:07 | 29.64739 | 119.65238 | 30126 ft | 483 kts | 184° |
| 2026-05-08 13:07 | 29.58037 | 119.64977 | 30126 ft | 483 kts | 181° |
| 2026-05-08 13:08 | 29.51353 | 119.64731 | 30126 ft | 483 kts | 183° |
| 2026-05-08 13:08 | 29.44649 | 119.64297 | 30130 ft | 483 kts | 183° |
| 2026-05-08 13:09 | 29.37946 | 119.63864 | 30128 ft | 483 kts | 183° |
| 2026-05-08 13:09 | 29.31276 | 119.63450 | 30127 ft | 483 kts | 183° |
| 2026-05-08 13:10 | 29.24567 | 119.63039 | 30126 ft | 483 kts | 183° |
| 2026-05-08 13:10 | 29.17922 | 119.62633 | 30126 ft | 483 kts | 183° |
| 2026-05-08 13:11 | 29.11222 | 119.62225 | 30126 ft | 483 kts | 183° |
| 2026-05-08 13:11 | 29.04513 | 119.61813 | 30126 ft | 483 kts | 183° |
| 2026-05-08 13:12 | 28.97835 | 119.61397 | 30126 ft | 483 kts | 183° |
| 2026-05-08 13:12 | 28.91147 | 119.60980 | 30126 ft | 483 kts | 183° |
| 2026-05-08 13:13 | 28.84471 | 119.60567 | 30126 ft | 483 kts | 183° |
| 2026-05-08 13:13 | 28.77779 | 119.60154 | 30126 ft | 483 kts | 183° |
| 2026-05-08 13:14 | 28.73410 | 119.59884 | 30126 ft | 483 kts | 183° |
| 2026-05-08 13:14 | 28.68078 | 119.59553 | 30126 ft | 483 kts | 183° |
| 2026-05-08 13:15 | 28.64626 | 119.59340 | 30126 ft | 483 kts | 183° |
| 2026-05-08 13:15 | 28.57909 | 119.58924 | 30126 ft | 483 kts | 183° |
| 2026-05-08 13:16 | 28.51215 | 119.58511 | 30126 ft | 483 kts | 183° |
| 2026-05-08 13:16 | 28.44569 | 119.58096 | 30150 ft | 483 kts | 182° |
| 2026-05-08 13:17 | 28.37868 | 119.57724 | 30228 ft | 482 kts | 182° |
| 2026-05-08 13:17 | 28.31192 | 119.57362 | 30283 ft | 481 kts | 182° |
| 2026-05-08 13:18 | 28.24529 | 119.56995 | 30310 ft | 481 kts | 182° |
| 2026-05-08 13:18 | 28.17882 | 119.56628 | 30319 ft | 480 kts | 182° |
| 2026-05-08 13:19 | 28.11232 | 119.56261 | 30318 ft | 480 kts | 182° |
| 2026-05-08 13:19 | 28.04594 | 119.56116 | 30316 ft | 480 kts | 180° |
| 2026-05-08 13:20 | 27.97951 | 119.56015 | 30313 ft | 480 kts | 180° |
| 2026-05-08 13:20 | 27.91327 | 119.55916 | 30311 ft | 480 kts | 180° |
| 2026-05-08 13:21 | 27.84679 | 119.55873 | 30310 ft | 480 kts | 180° |
| 2026-05-08 13:21 | 27.77990 | 119.55844 | 30309 ft | 480 kts | 180° |
| 2026-05-08 13:22 | 27.71366 | 119.55809 | 30309 ft | 480 kts | 180° |
| 2026-05-08 13:22 | 27.64694 | 119.55772 | 30309 ft | 480 kts | 180° |
| 2026-05-08 13:23 | 27.58051 | 119.55733 | 30309 ft | 480 kts | 180° |
| 2026-05-08 13:23 | 27.51380 | 119.55695 | 30309 ft | 480 kts | 180° |
| 2026-05-08 13:24 | 27.44777 | 119.55656 | 30309 ft | 480 kts | 180° |
| 2026-05-08 13:24 | 27.38164 | 119.55635 | 30309 ft | 480 kts | 179° |
| 2026-05-08 13:25 | 27.31510 | 119.55628 | 30309 ft | 480 kts | 179° |
| 2026-05-08 13:25 | 27.24879 | 119.55617 | 30309 ft | 480 kts | 180° |
| 2026-05-08 13:26 | 27.18236 | 119.55579 | 30309 ft | 480 kts | 180° |
| 2026-05-08 13:26 | 27.11560 | 119.55534 | 30309 ft | 480 kts | 180° |
| 2026-05-08 13:27 | 27.04945 | 119.55490 | 30309 ft | 480 kts | 180° |
| 2026-05-08 13:27 | 26.98250 | 119.55446 | 30311 ft | 478 kts | 180° |
| 2026-05-08 13:28 | 26.91685 | 119.55405 | 30311 ft | 473 kts | 180° |
| 2026-05-08 13:28 | 26.85248 | 119.55369 | 30311 ft | 468 kts | 180° |
| 2026-05-08 13:29 | 26.78761 | 119.55325 | 30308 ft | 466 kts | 180° |
| 2026-05-08 13:29 | 26.75593 | 119.55304 | 30304 ft | 448 kts | 180° |
| 2026-05-08 13:29 | 26.72545 | 119.55283 | 30301 ft | 430 kts | 180° |
| 2026-05-08 13:30 | 26.66644 | 119.55245 | 30308 ft | 426 kts | 180° |
| 2026-05-08 13:30 | 26.60716 | 119.55207 | 30309 ft | 426 kts | 180° |
| 2026-05-08 13:31 | 26.54824 | 119.55170 | 30309 ft | 426 kts | 180° |
| 2026-05-08 13:31 | 26.48935 | 119.55132 | 30309 ft | 426 kts | 180° |
| 2026-05-08 13:32 | 26.42993 | 119.55094 | 30309 ft | 426 kts | 180° |
| 2026-05-08 13:32 | 26.37104 | 119.55053 | 30309 ft | 426 kts | 180° |
| 2026-05-08 13:33 | 26.31187 | 119.54982 | 30309 ft | 426 kts | 180° |
| 2026-05-08 13:33 | 26.25416 | 119.54797 | 30309 ft | 426 kts | 184° |
| 2026-05-08 13:34 | 26.19552 | 119.53854 | 30310 ft | 427 kts | 192° |
| 2026-05-08 13:34 | 26.13867 | 119.52119 | 30310 ft | 427 kts | 196° |
| 2026-05-08 13:35 | 26.08200 | 119.50174 | 30309 ft | 427 kts | 197° |
| 2026-05-08 13:35 | 26.02596 | 119.48256 | 30309 ft | 427 kts | 196° |
| 2026-05-08 13:36 | 25.96908 | 119.46317 | 30309 ft | 427 kts | 196° |
| 2026-05-08 13:36 | 25.91278 | 119.44402 | 30309 ft | 427 kts | 196° |
| 2026-05-08 13:37 | 25.85625 | 119.42487 | 30309 ft | 427 kts | 196° |
| 2026-05-08 13:37 | 25.79972 | 119.40572 | 30309 ft | 428 kts | 197° |
| 2026-05-08 13:38 | 25.74568 | 119.37861 | 30311 ft | 429 kts | 210° |
| 2026-05-08 13:38 | 25.69911 | 119.33795 | 30310 ft | 432 kts | 223° |
| 2026-05-08 13:39 | 25.65809 | 119.28976 | 30297 ft | 433 kts | 225° |
| 2026-05-08 13:39 | 25.63773 | 119.26547 | 30036 ft | 433 kts | 225° |
| 2026-05-08 13:39 | 25.61737 | 119.24129 | 29787 ft | 433 kts | 225° |
| 2026-05-08 13:40 | 25.59678 | 119.21697 | 29537 ft | 434 kts | 225° |
| 2026-05-08 13:40 | 25.57625 | 119.19280 | 29279 ft | 433 kts | 225° |
| 2026-05-08 13:40 | 25.55569 | 119.16864 | 28787 ft | 430 kts | 225° |
| 2026-05-08 13:40 | 25.53499 | 119.14437 | 27955 ft | 433 kts | 225° |
| 2026-05-08 13:41 | 25.51565 | 119.12172 | 27311 ft | 435 kts | 225° |
| 2026-05-08 13:41 | 25.49410 | 119.09650 | 26905 ft | 439 kts | 225° |
| 2026-05-08 13:41 | 25.47397 | 119.07297 | 26812 ft | 431 kts | 225° |
| 2026-05-08 13:41 | 25.45393 | 119.04951 | 26805 ft | 414 kts | 224° |
| 2026-05-08 13:42 | 25.43462 | 119.02693 | 26800 ft | 396 kts | 224° |
| 2026-05-08 13:42 | 25.41595 | 119.00513 | 26797 ft | 380 kts | 224° |
| 2026-05-08 13:42 | 25.39840 | 118.98467 | 26799 ft | 369 kts | 224° |
| 2026-05-08 13:42 | 25.38164 | 118.96413 | 26791 ft | 372 kts | 232° |
| 2026-05-08 13:43 | 25.37032 | 118.93985 | 26786 ft | 376 kts | 252° |
| 2026-05-08 13:43 | 25.36564 | 118.91230 | 26664 ft | 375 kts | 263° |
| 2026-05-08 13:43 | 25.36349 | 118.88380 | 26231 ft | 374 kts | 265° |
| 2026-05-08 13:43 | 25.36179 | 118.85511 | 25715 ft | 374 kts | 266° |
| 2026-05-08 13:44 | 25.36009 | 118.82656 | 25271 ft | 372 kts | 266° |
| 2026-05-08 13:44 | 25.35834 | 118.79851 | 24870 ft | 369 kts | 266° |
| 2026-05-08 13:44 | 25.35653 | 118.77051 | 24467 ft | 366 kts | 266° |
| 2026-05-08 13:44 | 25.35479 | 118.74377 | 24065 ft | 363 kts | 266° |
| 2026-05-08 13:45 | 25.35298 | 118.71613 | 23640 ft | 361 kts | 266° |
| 2026-05-08 13:45 | 25.35129 | 118.69029 | 23243 ft | 359 kts | 266° |
| 2026-05-08 13:45 | 25.34935 | 118.66346 | 22828 ft | 357 kts | 262° |
| 2026-05-08 13:45 | 25.34213 | 118.63854 | 22349 ft | 355 kts | 238° |
| 2026-05-08 13:46 | 25.32606 | 118.61923 | 21909 ft | 351 kts | 214° |
| 2026-05-08 13:46 | 25.30429 | 118.60766 | 21473 ft | 346 kts | 192° |
| 2026-05-08 13:46 | 25.28147 | 118.60534 | 21049 ft | 342 kts | 177° |
| 2026-05-08 13:46 | 25.25892 | 118.60671 | 20661 ft | 340 kts | 175° |
| 2026-05-08 13:47 | 25.23560 | 118.60855 | 20235 ft | 338 kts | 175° |
| 2026-05-08 13:47 | 25.21224 | 118.61029 | 19814 ft | 336 kts | 175° |
| 2026-05-08 13:47 | 25.18894 | 118.61186 | 19398 ft | 334 kts | 175° |
| 2026-05-08 13:47 | 25.16616 | 118.61329 | 18988 ft | 332 kts | 175° |
| 2026-05-08 13:48 | 25.14311 | 118.61469 | 18571 ft | 330 kts | 176° |
| 2026-05-08 13:48 | 25.12039 | 118.61385 | 18149 ft | 329 kts | 187° |
| 2026-05-08 13:48 | 25.09802 | 118.60786 | 17726 ft | 329 kts | 199° |
| 2026-05-08 13:48 | 25.07754 | 118.59679 | 17298 ft | 328 kts | 212° |
| 2026-05-08 13:49 | 25.05990 | 118.58137 | 16876 ft | 327 kts | 223° |
| 2026-05-08 13:49 | 25.04417 | 118.56360 | 16620 ft | 326 kts | 226° |
| 2026-05-08 13:49 | 25.02881 | 118.54542 | 16371 ft | 326 kts | 227° |
| 2026-05-08 13:49 | 25.01321 | 118.52702 | 16119 ft | 326 kts | 226° |
| 2026-05-08 13:50 | 24.99771 | 118.50891 | 15869 ft | 325 kts | 226° |
| 2026-05-08 13:50 | 24.98231 | 118.49107 | 15621 ft | 324 kts | 226° |
| 2026-05-08 13:50 | 24.96734 | 118.47382 | 15380 ft | 323 kts | 226° |
| 2026-05-08 13:50 | 24.95174 | 118.45589 | 15129 ft | 322 kts | 226° |
| 2026-05-08 13:51 | 24.93633 | 118.43823 | 14880 ft | 321 kts | 226° |
| 2026-05-08 13:51 | 24.92086 | 118.42049 | 14630 ft | 320 kts | 226° |
| 2026-05-08 13:51 | 24.90553 | 118.40292 | 14381 ft | 319 kts | 226° |
| 2026-05-08 13:51 | 24.89011 | 118.38532 | 14129 ft | 318 kts | 226° |
| 2026-05-08 13:52 | 24.87557 | 118.36883 | 13883 ft | 313 kts | 226° |
| 2026-05-08 13:52 | 24.86077 | 118.35201 | 13596 ft | 307 kts | 226° |
| 2026-05-08 13:52 | 24.84720 | 118.33424 | 13290 ft | 302 kts | 242° |
| 2026-05-08 13:52 | 24.84202 | 118.31302 | 12982 ft | 293 kts | 273° |
| 2026-05-08 13:53 | 24.84678 | 118.29240 | 12683 ft | 282 kts | 302° |
| 2026-05-08 13:53 | 24.85821 | 118.27576 | 12409 ft | 275 kts | 313° |
| 2026-05-08 13:53 | 24.87010 | 118.26105 | 12157 ft | 270 kts | 313° |
| 2026-05-08 13:53 | 24.87961 | 118.24461 | 11876 ft | 269 kts | 289° |
| 2026-05-08 13:54 | 24.88186 | 118.22586 | 11580 ft | 269 kts | 265° |
| 2026-05-08 13:54 | 24.87595 | 118.20641 | 11216 ft | 270 kts | 235° |
| 2026-05-08 13:54 | 24.86259 | 118.19259 | 10852 ft | 268 kts | 210° |
| 2026-05-08 13:54 | 24.84689 | 118.18297 | 10535 ft | 267 kts | 207° |
| 2026-05-08 13:55 | 24.83090 | 118.17384 | 10197 ft | 266 kts | 206° |
| 2026-05-08 13:55 | 24.81453 | 118.16446 | 9858 ft | 265 kts | 207° |
| 2026-05-08 13:55 | 24.78356 | 118.14630 | 9217 ft | 262 kts | 207° |
| 2026-05-08 13:56 | 24.76713 | 118.13653 | 8877 ft | 261 kts | 207° |
| 2026-05-08 13:56 | 24.75127 | 118.12704 | 8545 ft | 260 kts | 207° |
| 2026-05-08 13:56 | 24.73580 | 118.11777 | 8221 ft | 259 kts | 207° |
| 2026-05-08 13:56 | 24.72327 | 118.11026 | 7960 ft | 258 kts | 207° |
| 2026-05-08 13:57 | 24.70466 | 118.09910 | 7573 ft | 256 kts | 207° |
| 2026-05-08 13:57 | 24.68968 | 118.09013 | 7260 ft | 255 kts | 207° |
| 2026-05-08 13:57 | 24.67383 | 118.08062 | 6929 ft | 254 kts | 207° |
| 2026-05-08 13:57 | 24.65857 | 118.07147 | 6611 ft | 253 kts | 207° |
| 2026-05-08 13:58 | 24.64321 | 118.06227 | 6289 ft | 251 kts | 207° |
| 2026-05-08 13:58 | 24.62789 | 118.05310 | 5971 ft | 250 kts | 207° |
| 2026-05-08 13:58 | 24.61268 | 118.04399 | 5654 ft | 249 kts | 207° |
| 2026-05-08 13:58 | 24.59751 | 118.03491 | 5341 ft | 248 kts | 207° |
| 2026-05-08 13:59 | 24.58237 | 118.02586 | 5028 ft | 247 kts | 207° |
| 2026-05-08 13:59 | 24.56779 | 118.01612 | 4712 ft | 246 kts | 216° |
| 2026-05-08 13:59 | 24.55518 | 118.00404 | 4407 ft | 246 kts | 225° |
| 2026-05-08 13:59 | 24.54364 | 117.99031 | 4110 ft | 244 kts | 228° |
| 2026-05-08 14:00 | 24.53257 | 117.97650 | 4017 ft | 243 kts | 228° |
| 2026-05-08 14:00 | 24.52145 | 117.96266 | 4011 ft | 245 kts | 228° |
| 2026-05-08 14:00 | 24.51013 | 117.94872 | 4008 ft | 245 kts | 227° |
| 2026-05-08 14:00 | 24.49883 | 117.93492 | 4006 ft | 245 kts | 227° |
| 2026-05-08 14:01 | 24.48744 | 117.92106 | 4006 ft | 245 kts | 227° |
| 2026-05-08 14:01 | 24.47627 | 117.90751 | 3873 ft | 240 kts | 226° |
| 2026-05-08 14:01 | 24.46301 | 117.89661 | 3452 ft | 241 kts | 195° |
| 2026-05-08 14:01 | 24.44674 | 117.89661 | 3086 ft | 232 kts | 156° |
| 2026-05-08 14:02 | 24.43370 | 117.90599 | 3024 ft | 226 kts | 133° |
| 2026-05-08 14:02 | 24.42288 | 117.91859 | 3009 ft | 225 kts | 120° |
| 2026-05-08 14:02 | 24.41818 | 117.93434 | 2986 ft | 213 kts | 87° |
| 2026-05-08 14:02 | 24.42016 | 117.94959 | 2998 ft | 194 kts | 77° |
| 2026-05-08 14:03 | 24.42424 | 117.96287 | 2973 ft | 178 kts | 58° |
| 2026-05-08 14:03 | 24.43138 | 117.97337 | 2829 ft | 171 kts | 50° |
| 2026-05-08 14:03 | 24.43913 | 117.98326 | 2569 ft | 169 kts | 50° |
| 2026-05-08 14:03 | 24.44650 | 117.99282 | 2361 ft | 162 kts | 51° |
| 2026-05-08 14:04 | 24.45343 | 118.00168 | 2299 ft | 145 kts | 50° |
| 2026-05-08 14:04 | 24.45996 | 118.01005 | 2311 ft | 143 kts | 51° |
| 2026-05-08 14:04 | 24.46609 | 118.01822 | 2220 ft | 137 kts | 52° |
| 2026-05-08 14:04 | 24.47193 | 118.02627 | 2039 ft | 134 kts | 52° |
| 2026-05-08 14:05 | 24.47767 | 118.03429 | 1866 ft | 134 kts | 53° |
| 2026-05-08 14:05 | 24.48336 | 118.04230 | 1694 ft | 133 kts | 53° |
| 2026-05-08 14:05 | 24.48911 | 118.05039 | 1520 ft | 133 kts | 53° |
| 2026-05-08 14:05 | 24.49408 | 118.05740 | 1368 ft | 133 kts | 53° |
| 2026-05-08 14:06 | 24.50032 | 118.06616 | 1177 ft | 132 kts | 53° |
| 2026-05-08 14:06 | 24.50595 | 118.07406 | 1005 ft | 132 kts | 53° |
| 2026-05-08 14:06 | 24.51160 | 118.08199 | 832 ft | 132 kts | 53° |
| 2026-05-08 14:06 | 24.51727 | 118.08993 | 657 ft | 131 kts | 53° |
| 2026-05-08 14:07 | 24.52288 | 118.09779 | 484 ft | 131 kts | 53° |
| 2026-05-08 14:07 | 24.52847 | 118.10561 | 306 ft | 131 kts | 53° |
| 2026-05-08 14:07 | 24.53413 | 118.11352 | 132 ft | 130 kts | 53° |
| 2026-05-08 14:07 | 24.53946 | 118.12108 | 60 ft | 109 kts | 52° |
| 2026-05-08 14:08 | 24.54308 | 118.12614 | 49 ft | 60 kts | 52° |
| 2026-05-08 14:08 | 24.54469 | 118.12848 | 48 ft | 23 kts | 62° |
| 2026-05-08 14:08 | 24.54522 | 118.13007 | 45 ft | 9 kts | 77° |
| 2026-05-08 14:08 | 24.54531 | 118.13065 | 45 ft | 2 kts | 81° |
| 2026-05-08 14:09 | 24.54534 | 118.13084 | 45 ft | 0 kts | 81° |
| 2026-05-08 14:09 | 24.54535 | 118.13103 | 45 ft | 10 kts | 92° |
| 2026-05-08 14:09 | 24.54515 | 118.13145 | 45 ft | 5 kts | 128° |
| 2026-05-08 14:09 | 24.54513 | 118.13191 | 44 ft | 8 kts | 64° |
| 2026-05-08 14:10 | 24.54551 | 118.13246 | 44 ft | 10 kts | 51° |
| 2026-05-08 14:10 | 24.54599 | 118.13313 | 44 ft | 11 kts | 52° |
| 2026-05-08 14:10 | 24.54627 | 118.13352 | 44 ft | 2 kts | 52° |
| 2026-05-08 14:10 | 24.54635 | 118.13364 | 44 ft | 1 kts | 52° |
| 2026-05-08 14:11 | 24.54638 | 118.13367 | 44 ft | 0 kts | 52° |
| 2026-05-08 14:13 | 24.54653 | 118.13389 | 44 ft | 14 kts | 52° |
| 2026-05-08 14:13 | 24.54750 | 118.13525 | 43 ft | 24 kts | 52° |
| 2026-05-08 14:13 | 24.54848 | 118.13662 | 41 ft | 15 kts | 52° |
| 2026-05-08 14:14 | 24.54890 | 118.13724 | 40 ft | 3 kts | 70° |
| 2026-05-08 14:14 | 24.54880 | 118.13741 | 39 ft | 4 kts | 149° |
| 2026-05-08 14:14 | 24.54850 | 118.13761 | 38 ft | 4 kts | 149° |
| 2026-05-08 14:14 | 24.54817 | 118.13783 | 37 ft | 6 kts | 149° |
| 2026-05-08 14:15 | 24.54791 | 118.13814 | 36 ft | 7 kts | 109° |
| 2026-05-08 14:15 | 24.54808 | 118.13875 | 35 ft | 4 kts | 58° |
| 2026-05-08 14:15 | 24.54812 | 118.13882 | 35 ft | 1 kts | 58° |
| 2026-05-08 14:15 | 24.54820 | 118.13892 | 35 ft | 0 kts | 49° |
| 2026-05-08 14:17 | 24.54819 | 118.13892 | 35 ft | 0 kts | 49° |